sensor_id;sensor_type;location;lat;lon;timestamp;P1;durP1;ratioP1;P2;durP2;ratioP2
51738;SDS011;37815;52.692;6.226;2023-11-21T00:04:54;16.75;;;6.53;;
51738;SDS011;37815;52.692;6.226;2023-11-21T00:09:55;12.82;;;5.65;;
51738;SDS011;37815;52.692;6.226;2023-11-21T00:14:56;12.90;;;5.97;;
51738;SDS011;37815;52.692;6.226;2023-11-21T00:19:57;10.60;;;5.13;;
51738;SDS011;37815;52.692;6.226;2023-11-21T00:24:57;13.02;;;5.55;;
51738;SDS011;37815;52.692;6.226;2023-11-21T00:29:58;15.20;;;6.05;;
51738;SDS011;37815;52.692;6.226;2023-11-21T00:34:58;17.50;;;6.32;;
51738;SDS011;37815;52.692;6.226;2023-11-21T00:39:59;12.40;;;6.35;;
51738;SDS011;37815;52.692;6.226;2023-11-21T00:45:00;13.88;;;5.72;;
51738;SDS011;37815;52.692;6.226;2023-11-21T00:50:01;10.63;;;6.03;;
51738;SDS011;37815;52.692;6.226;2023-11-21T00:55:03;13.25;;;6.07;;
51738;SDS011;37815;52.692;6.226;2023-11-21T01:00:05;15.43;;;6.22;;
51738;SDS011;37815;52.692;6.226;2023-11-21T01:05:08;10.77;;;5.22;;
51738;SDS011;37815;52.692;6.226;2023-11-21T01:10:08;14.15;;;6.22;;
51738;SDS011;37815;52.692;6.226;2023-11-21T01:15:10;13.68;;;6.00;;
51738;SDS011;37815;52.692;6.226;2023-11-21T01:20:12;12.15;;;5.80;;
51738;SDS011;37815;52.692;6.226;2023-11-21T01:25:12;13.60;;;6.20;;
51738;SDS011;37815;52.692;6.226;2023-11-21T01:30:14;14.60;;;6.18;;
51738;SDS011;37815;52.692;6.226;2023-11-21T01:35:16;15.45;;;6.10;;
51738;SDS011;37815;52.692;6.226;2023-11-21T01:40:16;12.88;;;6.18;;
51738;SDS011;37815;52.692;6.226;2023-11-21T01:45:18;14.75;;;6.07;;
51738;SDS011;37815;52.692;6.226;2023-11-21T01:50:20;13.98;;;6.35;;
51738;SDS011;37815;52.692;6.226;2023-11-21T01:55:22;14.00;;;6.00;;
51738;SDS011;37815;52.692;6.226;2023-11-21T02:00:23;12.60;;;6.25;;
51738;SDS011;37815;52.692;6.226;2023-11-21T02:05:24;13.77;;;6.13;;
51738;SDS011;37815;52.692;6.226;2023-11-21T02:10:26;14.07;;;6.43;;
51738;SDS011;37815;52.692;6.226;2023-11-21T02:15:26;16.15;;;6.38;;
51738;SDS011;37815;52.692;6.226;2023-11-21T02:20:28;16.15;;;6.60;;
51738;SDS011;37815;52.692;6.226;2023-11-21T02:25:31;14.95;;;6.38;;
51738;SDS011;37815;52.692;6.226;2023-11-21T02:30:33;17.50;;;7.15;;
51738;SDS011;37815;52.692;6.226;2023-11-21T02:35:35;13.30;;;5.88;;
51738;SDS011;37815;52.692;6.226;2023-11-21T02:40:36;13.93;;;5.35;;
51738;SDS011;37815;52.692;6.226;2023-11-21T02:45:36;12.20;;;5.57;;
51738;SDS011;37815;52.692;6.226;2023-11-21T02:50:37;12.40;;;5.82;;
51738;SDS011;37815;52.692;6.226;2023-11-21T02:55:38;13.57;;;6.18;;
51738;SDS011;37815;52.692;6.226;2023-11-21T03:00:38;15.05;;;6.20;;
51738;SDS011;37815;52.692;6.226;2023-11-21T03:05:41;14.32;;;6.25;;
51738;SDS011;37815;52.692;6.226;2023-11-21T03:10:42;14.93;;;6.38;;
51738;SDS011;37815;52.692;6.226;2023-11-21T03:15:43;13.05;;;6.55;;
51738;SDS011;37815;52.692;6.226;2023-11-21T03:20:43;12.07;;;5.25;;
51738;SDS011;37815;52.692;6.226;2023-11-21T03:25:47;15.85;;;6.05;;
51738;SDS011;37815;52.692;6.226;2023-11-21T03:30:48;13.93;;;6.40;;
51738;SDS011;37815;52.692;6.226;2023-11-21T03:35:48;18.48;;;6.78;;
51738;SDS011;37815;52.692;6.226;2023-11-21T03:40:49;15.13;;;6.70;;
51738;SDS011;37815;52.692;6.226;2023-11-21T03:45:50;15.43;;;6.28;;
51738;SDS011;37815;52.692;6.226;2023-11-21T03:50:51;15.13;;;5.78;;
51738;SDS011;37815;52.692;6.226;2023-11-21T03:55:51;15.95;;;6.13;;
51738;SDS011;37815;52.692;6.226;2023-11-21T04:00:52;16.48;;;6.80;;
51738;SDS011;37815;52.692;6.226;2023-11-21T04:05:52;16.08;;;6.95;;
51738;SDS011;37815;52.692;6.226;2023-11-21T04:10:54;13.40;;;6.45;;
51738;SDS011;37815;52.692;6.226;2023-11-21T04:15:55;17.42;;;7.65;;
51738;SDS011;37815;52.692;6.226;2023-11-21T04:20:56;14.43;;;6.63;;
51738;SDS011;37815;52.692;6.226;2023-11-21T04:25:57;13.82;;;5.72;;
51738;SDS011;37815;52.692;6.226;2023-11-21T04:30:59;13.40;;;6.63;;
51738;SDS011;37815;52.692;6.226;2023-11-21T04:35:59;14.10;;;6.57;;
51738;SDS011;37815;52.692;6.226;2023-11-21T04:41:00;14.23;;;6.80;;
51738;SDS011;37815;52.692;6.226;2023-11-21T04:46:00;16.80;;;7.20;;
51738;SDS011;37815;52.692;6.226;2023-11-21T04:51:02;14.07;;;6.53;;
51738;SDS011;37815;52.692;6.226;2023-11-21T04:56:04;13.13;;;6.60;;
51738;SDS011;37815;52.692;6.226;2023-11-21T05:01:05;13.32;;;6.68;;
51738;SDS011;37815;52.692;6.226;2023-11-21T05:06:09;16.45;;;7.10;;
51738;SDS011;37815;52.692;6.226;2023-11-21T05:11:10;15.43;;;7.35;;
51738;SDS011;37815;52.692;6.226;2023-11-21T05:16:11;12.98;;;6.10;;
51738;SDS011;37815;52.692;6.226;2023-11-21T05:21:12;14.13;;;6.28;;
51738;SDS011;37815;52.692;6.226;2023-11-21T05:26:13;12.43;;;6.95;;
51738;SDS011;37815;52.692;6.226;2023-11-21T05:31:14;14.10;;;6.70;;
51738;SDS011;37815;52.692;6.226;2023-11-21T05:36:14;17.15;;;7.32;;
51738;SDS011;37815;52.692;6.226;2023-11-21T05:41:15;14.27;;;7.38;;
51738;SDS011;37815;52.692;6.226;2023-11-21T05:46:15;12.43;;;6.85;;
51738;SDS011;37815;52.692;6.226;2023-11-21T05:51:16;15.18;;;7.15;;
51738;SDS011;37815;52.692;6.226;2023-11-21T05:56:17;12.85;;;6.70;;
51738;SDS011;37815;52.692;6.226;2023-11-21T06:01:19;13.68;;;7.03;;
51738;SDS011;37815;52.692;6.226;2023-11-21T06:06:20;12.50;;;6.72;;
51738;SDS011;37815;52.692;6.226;2023-11-21T06:11:22;18.25;;;7.05;;
51738;SDS011;37815;52.692;6.226;2023-11-21T06:16:23;14.73;;;6.72;;
51738;SDS011;37815;52.692;6.226;2023-11-21T06:21:24;15.95;;;7.13;;
51738;SDS011;37815;52.692;6.226;2023-11-21T06:26:25;18.70;;;7.57;;
51738;SDS011;37815;52.692;6.226;2023-11-21T06:31:26;15.75;;;7.63;;
51738;SDS011;37815;52.692;6.226;2023-11-21T06:36:27;18.77;;;7.55;;
51738;SDS011;37815;52.692;6.226;2023-11-21T06:41:28;25.30;;;9.40;;
51738;SDS011;37815;52.692;6.226;2023-11-21T06:46:29;15.65;;;6.63;;
51738;SDS011;37815;52.692;6.226;2023-11-21T06:51:30;17.80;;;7.60;;
51738;SDS011;37815;52.692;6.226;2023-11-21T06:56:30;18.20;;;7.63;;
51738;SDS011;37815;52.692;6.226;2023-11-21T07:01:31;15.63;;;7.53;;
51738;SDS011;37815;52.692;6.226;2023-11-21T07:06:38;15.90;;;7.28;;
51738;SDS011;37815;52.692;6.226;2023-11-21T07:11:39;14.82;;;6.05;;
51738;SDS011;37815;52.692;6.226;2023-11-21T07:16:40;17.25;;;8.05;;
51738;SDS011;37815;52.692;6.226;2023-11-21T07:21:40;16.83;;;7.10;;
51738;SDS011;37815;52.692;6.226;2023-11-21T07:26:41;16.05;;;6.93;;
51738;SDS011;37815;52.692;6.226;2023-11-21T07:31:42;15.93;;;7.38;;
51738;SDS011;37815;52.692;6.226;2023-11-21T07:36:42;14.02;;;6.85;;
51738;SDS011;37815;52.692;6.226;2023-11-21T07:41:43;14.38;;;6.97;;
51738;SDS011;37815;52.692;6.226;2023-11-21T07:46:48;15.52;;;6.85;;
51738;SDS011;37815;52.692;6.226;2023-11-21T07:51:49;13.57;;;6.38;;
51738;SDS011;37815;52.692;6.226;2023-11-21T07:56:50;12.93;;;6.72;;
51738;SDS011;37815;52.692;6.226;2023-11-21T08:01:51;13.32;;;6.72;;
51738;SDS011;37815;52.692;6.226;2023-11-21T08:06:51;14.02;;;7.43;;
51738;SDS011;37815;52.692;6.226;2023-11-21T08:11:52;12.43;;;6.80;;
51738;SDS011;37815;52.692;6.226;2023-11-21T08:16:53;18.00;;;7.65;;
51738;SDS011;37815;52.692;6.226;2023-11-21T08:21:57;13.95;;;6.65;;
51738;SDS011;37815;52.692;6.226;2023-11-21T08:26:59;10.70;;;5.70;;
51738;SDS011;37815;52.692;6.226;2023-11-21T08:31:59;12.13;;;6.10;;
51738;SDS011;37815;52.692;6.226;2023-11-21T08:37:00;11.18;;;5.78;;
51738;SDS011;37815;52.692;6.226;2023-11-21T08:42:01;12.30;;;5.60;;
51738;SDS011;37815;52.692;6.226;2023-11-21T08:47:02;9.35;;;5.10;;
51738;SDS011;37815;52.692;6.226;2023-11-21T08:52:05;11.98;;;6.05;;
51738;SDS011;37815;52.692;6.226;2023-11-21T08:57:06;11.40;;;5.80;;
51738;SDS011;37815;52.692;6.226;2023-11-21T09:02:10;10.23;;;5.93;;
51738;SDS011;37815;52.692;6.226;2023-11-21T09:07:11;10.75;;;5.28;;
51738;SDS011;37815;52.692;6.226;2023-11-21T09:12:12;13.75;;;5.85;;
51738;SDS011;37815;52.692;6.226;2023-11-21T09:17:12;19.33;;;8.32;;
51738;SDS011;37815;52.692;6.226;2023-11-21T09:22:14;12.93;;;6.00;;
51738;SDS011;37815;52.692;6.226;2023-11-21T09:27:15;12.48;;;5.47;;
51738;SDS011;37815;52.692;6.226;2023-11-21T09:32:17;13.73;;;6.25;;
51738;SDS011;37815;52.692;6.226;2023-11-21T09:37:18;12.13;;;6.05;;
51738;SDS011;37815;52.692;6.226;2023-11-21T09:42:25;11.32;;;5.97;;
51738;SDS011;37815;52.692;6.226;2023-11-21T09:47:30;12.98;;;5.32;;
51738;SDS011;37815;52.692;6.226;2023-11-21T09:52:32;12.43;;;6.10;;
51738;SDS011;37815;52.692;6.226;2023-11-21T09:57:41;11.30;;;5.68;;
51738;SDS011;37815;52.692;6.226;2023-11-21T10:02:42;9.70;;;4.82;;
51738;SDS011;37815;52.692;6.226;2023-11-21T10:07:45;10.15;;;5.22;;
51738;SDS011;37815;52.692;6.226;2023-11-21T10:12:48;11.00;;;4.80;;
51738;SDS011;37815;52.692;6.226;2023-11-21T10:17:54;9.32;;;4.32;;
51738;SDS011;37815;52.692;6.226;2023-11-21T10:22:55;10.45;;;4.43;;
51738;SDS011;37815;52.692;6.226;2023-11-21T10:27:59;11.27;;;4.47;;
51738;SDS011;37815;52.692;6.226;2023-11-21T10:33:01;9.75;;;4.10;;
51738;SDS011;37815;52.692;6.226;2023-11-21T10:38:02;11.45;;;4.88;;
51738;SDS011;37815;52.692;6.226;2023-11-21T10:43:07;8.15;;;4.18;;
51738;SDS011;37815;52.692;6.226;2023-11-21T10:48:09;7.93;;;4.20;;
51738;SDS011;37815;52.692;6.226;2023-11-21T10:53:12;9.77;;;4.20;;
51738;SDS011;37815;52.692;6.226;2023-11-21T10:58:13;9.80;;;4.05;;
51738;SDS011;37815;52.692;6.226;2023-11-21T11:03:16;8.75;;;3.92;;
51738;SDS011;37815;52.692;6.226;2023-11-21T11:08:17;7.72;;;4.07;;
51738;SDS011;37815;52.692;6.226;2023-11-21T11:13:26;8.45;;;4.03;;
51738;SDS011;37815;52.692;6.226;2023-11-21T11:18:29;9.65;;;4.47;;
51738;SDS011;37815;52.692;6.226;2023-11-21T11:29:00;9.82;;;4.47;;
51738;SDS011;37815;52.692;6.226;2023-11-21T11:34:30;9.00;;;4.07;;
51738;SDS011;37815;52.692;6.226;2023-11-21T11:55:17;10.18;;;5.22;;
51738;SDS011;37815;52.692;6.226;2023-11-21T12:05:26;11.07;;;5.10;;
51738;SDS011;37815;52.692;6.226;2023-11-21T12:10:33;12.55;;;5.13;;
51738;SDS011;37815;52.692;6.226;2023-11-21T12:15:35;9.95;;;5.05;;
51738;SDS011;37815;52.692;6.226;2023-11-21T12:20:37;8.70;;;4.78;;
51738;SDS011;37815;52.692;6.226;2023-11-21T12:25:41;10.68;;;5.45;;
51738;SDS011;37815;52.692;6.226;2023-11-21T12:30:42;9.07;;;4.55;;
51738;SDS011;37815;52.692;6.226;2023-11-21T12:35:43;10.38;;;4.95;;
51738;SDS011;37815;52.692;6.226;2023-11-21T12:40:44;9.35;;;5.35;;
51738;SDS011;37815;52.692;6.226;2023-11-21T12:45:45;8.70;;;4.40;;
51738;SDS011;37815;52.692;6.226;2023-11-21T12:50:45;8.98;;;4.38;;
51738;SDS011;37815;52.692;6.226;2023-11-21T12:55:48;10.27;;;5.20;;
51738;SDS011;37815;52.692;6.226;2023-11-21T13:00:51;11.27;;;5.43;;
51738;SDS011;37815;52.692;6.226;2023-11-21T13:05:54;9.32;;;4.57;;
51738;SDS011;37815;52.692;6.226;2023-11-21T13:10:57;9.38;;;4.45;;
51738;SDS011;37815;52.692;6.226;2023-11-21T13:16:02;8.40;;;4.47;;
51738;SDS011;37815;52.692;6.226;2023-11-21T13:21:05;8.63;;;4.80;;
51738;SDS011;37815;52.692;6.226;2023-11-21T13:26:17;8.43;;;4.18;;
51738;SDS011;37815;52.692;6.226;2023-11-21T13:31:23;7.13;;;4.05;;
51738;SDS011;37815;52.692;6.226;2023-11-21T13:36:31;6.70;;;4.30;;
51738;SDS011;37815;52.692;6.226;2023-11-21T13:41:35;7.85;;;4.22;;
51738;SDS011;37815;52.692;6.226;2023-11-21T13:46:38;6.85;;;4.05;;
51738;SDS011;37815;52.692;6.226;2023-11-21T13:51:39;8.95;;;4.15;;
51738;SDS011;37815;52.692;6.226;2023-11-21T13:56:46;7.65;;;4.30;;
51738;SDS011;37815;52.692;6.226;2023-11-21T14:01:50;9.00;;;4.22;;
51738;SDS011;37815;52.692;6.226;2023-11-21T14:06:59;8.18;;;4.03;;
51738;SDS011;37815;52.692;6.226;2023-11-21T14:12:14;8.43;;;4.45;;
51738;SDS011;37815;52.692;6.226;2023-11-21T14:17:16;8.88;;;4.53;;
51738;SDS011;37815;52.692;6.226;2023-11-21T14:22:16;8.23;;;4.10;;
51738;SDS011;37815;52.692;6.226;2023-11-21T14:27:17;7.38;;;4.13;;
51738;SDS011;37815;52.692;6.226;2023-11-21T14:32:18;7.07;;;3.60;;
51738;SDS011;37815;52.692;6.226;2023-11-21T14:37:18;14.43;;;4.78;;
51738;SDS011;37815;52.692;6.226;2023-11-21T14:42:20;8.02;;;3.92;;
51738;SDS011;37815;52.692;6.226;2023-11-21T14:47:25;6.75;;;3.88;;
51738;SDS011;37815;52.692;6.226;2023-11-21T14:52:27;6.75;;;4.05;;
51738;SDS011;37815;52.692;6.226;2023-11-21T14:57:34;7.55;;;4.43;;
51738;SDS011;37815;52.692;6.226;2023-11-21T15:02:36;8.07;;;4.10;;
51738;SDS011;37815;52.692;6.226;2023-11-21T15:07:51;7.75;;;3.95;;
51738;SDS011;37815;52.692;6.226;2023-11-21T15:12:56;7.75;;;3.88;;
51738;SDS011;37815;52.692;6.226;2023-11-21T15:17:57;6.63;;;3.58;;
51738;SDS011;37815;52.692;6.226;2023-11-21T15:22:59;7.25;;;4.00;;
51738;SDS011;37815;52.692;6.226;2023-11-21T15:28:01;7.60;;;4.00;;
51738;SDS011;37815;52.692;6.226;2023-11-21T15:33:05;7.32;;;4.15;;
51738;SDS011;37815;52.692;6.226;2023-11-21T15:38:08;6.57;;;3.35;;
51738;SDS011;37815;52.692;6.226;2023-11-21T15:43:08;6.15;;;3.80;;
51738;SDS011;37815;52.692;6.226;2023-11-21T15:48:09;7.30;;;4.00;;
51738;SDS011;37815;52.692;6.226;2023-11-21T15:53:10;7.47;;;3.80;;
51738;SDS011;37815;52.692;6.226;2023-11-21T15:58:10;7.18;;;4.28;;
51738;SDS011;37815;52.692;6.226;2023-11-21T16:03:11;6.55;;;3.85;;
51738;SDS011;37815;52.692;6.226;2023-11-21T16:08:13;7.50;;;3.45;;
51738;SDS011;37815;52.692;6.226;2023-11-21T16:13:14;5.93;;;3.42;;
51738;SDS011;37815;52.692;6.226;2023-11-21T16:18:16;6.85;;;4.25;;
51738;SDS011;37815;52.692;6.226;2023-11-21T16:23:17;7.63;;;4.10;;
51738;SDS011;37815;52.692;6.226;2023-11-21T16:28:17;7.38;;;3.90;;
51738;SDS011;37815;52.692;6.226;2023-11-21T16:33:18;7.68;;;4.10;;
51738;SDS011;37815;52.692;6.226;2023-11-21T16:38:19;8.45;;;4.10;;
51738;SDS011;37815;52.692;6.226;2023-11-21T16:43:20;6.40;;;3.92;;
51738;SDS011;37815;52.692;6.226;2023-11-21T16:48:21;7.20;;;3.80;;
51738;SDS011;37815;52.692;6.226;2023-11-21T16:53:21;10.85;;;4.28;;
51738;SDS011;37815;52.692;6.226;2023-11-21T16:58:22;7.65;;;3.60;;
51738;SDS011;37815;52.692;6.226;2023-11-21T17:03:22;6.95;;;4.03;;
51738;SDS011;37815;52.692;6.226;2023-11-21T17:08:23;6.50;;;3.80;;
51738;SDS011;37815;52.692;6.226;2023-11-21T17:13:24;7.60;;;4.30;;
51738;SDS011;37815;52.692;6.226;2023-11-21T17:18:25;7.85;;;3.78;;
51738;SDS011;37815;52.692;6.226;2023-11-21T17:23:26;8.70;;;3.90;;
51738;SDS011;37815;52.692;6.226;2023-11-21T17:28:29;9.13;;;4.10;;
51738;SDS011;37815;52.692;6.226;2023-11-21T17:33:30;7.32;;;3.78;;
51738;SDS011;37815;52.692;6.226;2023-11-21T17:38:31;8.48;;;3.92;;
51738;SDS011;37815;52.692;6.226;2023-11-21T17:43:32;7.57;;;3.60;;
51738;SDS011;37815;52.692;6.226;2023-11-21T17:48:37;6.05;;;3.35;;
51738;SDS011;37815;52.692;6.226;2023-11-21T17:53:40;5.68;;;3.47;;
51738;SDS011;37815;52.692;6.226;2023-11-21T17:58:41;6.20;;;3.40;;
51738;SDS011;37815;52.692;6.226;2023-11-21T18:03:42;6.28;;;3.83;;
51738;SDS011;37815;52.692;6.226;2023-11-21T18:08:43;6.00;;;3.72;;
51738;SDS011;37815;52.692;6.226;2023-11-21T18:13:43;6.22;;;4.22;;
51738;SDS011;37815;52.692;6.226;2023-11-21T18:18:44;6.60;;;3.67;;
51738;SDS011;37815;52.692;6.226;2023-11-21T18:23:45;6.53;;;3.72;;
51738;SDS011;37815;52.692;6.226;2023-11-21T18:28:46;7.03;;;3.50;;
51738;SDS011;37815;52.692;6.226;2023-11-21T18:33:46;8.35;;;4.25;;
51738;SDS011;37815;52.692;6.226;2023-11-21T18:38:47;7.03;;;3.60;;
51738;SDS011;37815;52.692;6.226;2023-11-21T18:43:48;7.43;;;3.72;;
51738;SDS011;37815;52.692;6.226;2023-11-21T18:48:50;4.78;;;3.35;;
51738;SDS011;37815;52.692;6.226;2023-11-21T18:53:52;5.47;;;3.42;;
51738;SDS011;37815;52.692;6.226;2023-11-21T18:58:52;6.18;;;4.30;;
51738;SDS011;37815;52.692;6.226;2023-11-21T19:03:53;6.95;;;4.38;;
51738;SDS011;37815;52.692;6.226;2023-11-21T19:08:54;7.45;;;4.13;;
51738;SDS011;37815;52.692;6.226;2023-11-21T19:13:55;6.82;;;4.13;;
51738;SDS011;37815;52.692;6.226;2023-11-21T19:18:56;7.60;;;4.45;;
51738;SDS011;37815;52.692;6.226;2023-11-21T19:23:57;7.90;;;4.20;;
51738;SDS011;37815;52.692;6.226;2023-11-21T19:28:58;8.65;;;4.35;;
51738;SDS011;37815;52.692;6.226;2023-11-21T19:33:59;6.70;;;4.32;;
51738;SDS011;37815;52.692;6.226;2023-11-21T19:38:59;7.38;;;4.78;;
51738;SDS011;37815;52.692;6.226;2023-11-21T19:44:00;7.40;;;4.20;;
51738;SDS011;37815;52.692;6.226;2023-11-21T19:49:01;7.88;;;4.50;;
51738;SDS011;37815;52.692;6.226;2023-11-21T19:54:02;6.45;;;3.78;;
51738;SDS011;37815;52.692;6.226;2023-11-21T19:59:03;7.05;;;4.47;;
51738;SDS011;37815;52.692;6.226;2023-11-21T20:04:04;7.80;;;4.43;;
51738;SDS011;37815;52.692;6.226;2023-11-21T20:09:04;8.43;;;4.80;;
51738;SDS011;37815;52.692;6.226;2023-11-21T20:14:05;6.18;;;3.92;;
51738;SDS011;37815;52.692;6.226;2023-11-21T20:19:05;6.47;;;4.53;;
51738;SDS011;37815;52.692;6.226;2023-11-21T20:24:07;8.07;;;4.97;;
51738;SDS011;37815;52.692;6.226;2023-11-21T20:29:11;7.88;;;4.60;;
51738;SDS011;37815;52.692;6.226;2023-11-21T20:34:12;9.10;;;4.88;;
51738;SDS011;37815;52.692;6.226;2023-11-21T20:39:12;10.85;;;5.15;;
51738;SDS011;37815;52.692;6.226;2023-11-21T20:44:16;9.13;;;5.22;;
51738;SDS011;37815;52.692;6.226;2023-11-21T20:49:16;9.43;;;5.22;;
51738;SDS011;37815;52.692;6.226;2023-11-21T20:54:17;8.85;;;4.75;;
51738;SDS011;37815;52.692;6.226;2023-11-21T20:59:18;8.13;;;5.32;;
51738;SDS011;37815;52.692;6.226;2023-11-21T21:04:19;9.15;;;5.28;;
51738;SDS011;37815;52.692;6.226;2023-11-21T21:09:20;8.43;;;5.25;;
51738;SDS011;37815;52.692;6.226;2023-11-21T21:14:21;8.95;;;5.30;;
51738;SDS011;37815;52.692;6.226;2023-11-21T21:19:26;9.25;;;5.10;;
51738;SDS011;37815;52.692;6.226;2023-11-21T21:24:27;8.55;;;5.38;;
51738;SDS011;37815;52.692;6.226;2023-11-21T21:29:28;7.60;;;4.15;;
51738;SDS011;37815;52.692;6.226;2023-11-21T21:34:29;7.68;;;5.22;;
51738;SDS011;37815;52.692;6.226;2023-11-21T21:39:29;8.88;;;4.80;;
51738;SDS011;37815;52.692;6.226;2023-11-21T21:44:30;8.43;;;4.82;;
51738;SDS011;37815;52.692;6.226;2023-11-21T21:49:33;7.80;;;5.18;;
51738;SDS011;37815;52.692;6.226;2023-11-21T21:54:33;9.38;;;4.50;;
51738;SDS011;37815;52.692;6.226;2023-11-21T21:59:34;7.53;;;4.85;;
51738;SDS011;37815;52.692;6.226;2023-11-21T22:04:35;7.85;;;4.95;;
51738;SDS011;37815;52.692;6.226;2023-11-21T22:09:35;7.07;;;4.85;;
51738;SDS011;37815;52.692;6.226;2023-11-21T22:14:36;7.28;;;4.40;;
51738;SDS011;37815;52.692;6.226;2023-11-21T22:19:37;8.15;;;4.85;;
51738;SDS011;37815;52.692;6.226;2023-11-21T22:24:37;8.07;;;5.00;;
51738;SDS011;37815;52.692;6.226;2023-11-21T22:29:38;8.32;;;5.25;;
51738;SDS011;37815;52.692;6.226;2023-11-21T22:34:39;8.60;;;5.28;;
51738;SDS011;37815;52.692;6.226;2023-11-21T22:39:40;8.75;;;5.00;;
51738;SDS011;37815;52.692;6.226;2023-11-21T22:44:41;8.43;;;5.35;;
51738;SDS011;37815;52.692;6.226;2023-11-21T22:49:42;8.57;;;5.05;;
51738;SDS011;37815;52.692;6.226;2023-11-21T22:54:42;10.18;;;5.10;;
51738;SDS011;37815;52.692;6.226;2023-11-21T22:59:43;9.10;;;4.97;;
51738;SDS011;37815;52.692;6.226;2023-11-21T23:04:45;8.02;;;4.82;;
51738;SDS011;37815;52.692;6.226;2023-11-21T23:09:45;8.88;;;4.97;;
51738;SDS011;37815;52.692;6.226;2023-11-21T23:14:46;8.73;;;5.47;;
51738;SDS011;37815;52.692;6.226;2023-11-21T23:19:47;9.65;;;5.28;;
51738;SDS011;37815;52.692;6.226;2023-11-21T23:24:47;10.27;;;5.18;;
51738;SDS011;37815;52.692;6.226;2023-11-21T23:29:49;8.90;;;5.45;;
51738;SDS011;37815;52.692;6.226;2023-11-21T23:34:53;9.40;;;5.15;;
51738;SDS011;37815;52.692;6.226;2023-11-21T23:39:54;8.40;;;5.18;;
51738;SDS011;37815;52.692;6.226;2023-11-21T23:44:54;8.20;;;4.93;;
51738;SDS011;37815;52.692;6.226;2023-11-21T23:49:55;9.88;;;5.20;;
51738;SDS011;37815;52.692;6.226;2023-11-21T23:54:57;9.90;;;4.82;;
51738;SDS011;37815;52.692;6.226;2023-11-21T23:59:59;8.40;;;5.30;;
